sensor_id;sensor_type;location;lat;lon;timestamp;P1;durP1;ratioP1;P2;durP2;ratioP2
10090;SDS011;5084;51.386;6.778;2022-09-29T00:01:52;8.57;;;7.77;;
10090;SDS011;5084;51.386;6.778;2022-09-29T00:04:18;10.07;;;7.80;;
10090;SDS011;5084;51.386;6.778;2022-09-29T00:06:44;7.90;;;7.20;;
10090;SDS011;5084;51.386;6.778;2022-09-29T00:09:10;8.43;;;7.63;;
10090;SDS011;5084;51.386;6.778;2022-09-29T00:11:40;8.87;;;7.97;;
10090;SDS011;5084;51.386;6.778;2022-09-29T00:14:06;8.77;;;7.53;;
10090;SDS011;5084;51.386;6.778;2022-09-29T00:16:32;9.07;;;8.17;;
10090;SDS011;5084;51.386;6.778;2022-09-29T00:18:58;8.27;;;7.47;;
10090;SDS011;5084;51.386;6.778;2022-09-29T00:21:25;10.73;;;8.13;;
10090;SDS011;5084;51.386;6.778;2022-09-29T00:23:51;8.63;;;7.83;;
10090;SDS011;5084;51.386;6.778;2022-09-29T00:26:19;9.07;;;8.17;;
10090;SDS011;5084;51.386;6.778;2022-09-29T00:28:53;8.57;;;7.77;;
10090;SDS011;5084;51.386;6.778;2022-09-29T00:31:21;9.10;;;7.90;;
10090;SDS011;5084;51.386;6.778;2022-09-29T00:33:47;10.60;;;8.17;;
10090;SDS011;5084;51.386;6.778;2022-09-29T00:36:15;8.53;;;7.73;;
10090;SDS011;5084;51.386;6.778;2022-09-29T00:38:42;10.90;;;8.13;;
10090;SDS011;5084;51.386;6.778;2022-09-29T00:41:19;11.83;;;8.43;;
10090;SDS011;5084;51.386;6.778;2022-09-29T00:43:49;9.03;;;7.50;;
10090;SDS011;5084;51.386;6.778;2022-09-29T00:46:18;10.17;;;8.17;;
10090;SDS011;5084;51.386;6.778;2022-09-29T00:48:47;8.83;;;7.97;;
10090;SDS011;5084;51.386;6.778;2022-09-29T00:51:14;10.53;;;7.83;;
10090;SDS011;5084;51.386;6.778;2022-09-29T00:53:41;8.10;;;7.30;;
10090;SDS011;5084;51.386;6.778;2022-09-29T00:56:09;8.43;;;7.63;;
10090;SDS011;5084;51.386;6.778;2022-09-29T00:58:46;7.87;;;6.50;;
10090;SDS011;5084;51.386;6.778;2022-09-29T01:01:18;9.57;;;7.47;;
10090;SDS011;5084;51.386;6.778;2022-09-29T01:03:44;8.10;;;7.30;;
10090;SDS011;5084;51.386;6.778;2022-09-29T01:06:12;7.77;;;7.00;;
10090;SDS011;5084;51.386;6.778;2022-09-29T01:11:07;11.17;;;8.30;;
10090;SDS011;5084;51.386;6.778;2022-09-29T01:13:34;10.50;;;7.80;;
10090;SDS011;5084;51.386;6.778;2022-09-29T01:16:01;9.03;;;8.13;;
10090;SDS011;5084;51.386;6.778;2022-09-29T01:18:27;8.63;;;7.07;;
10090;SDS011;5084;51.386;6.778;2022-09-29T01:21:00;8.70;;;7.90;;
10090;SDS011;5084;51.386;6.778;2022-09-29T01:31:05;8.17;;;7.37;;
10090;SDS011;5084;51.386;6.778;2022-09-29T01:33:37;8.50;;;7.70;;
10090;SDS011;5084;51.386;6.778;2022-09-29T01:38:37;8.50;;;7.70;;
10090;SDS011;5084;51.386;6.778;2022-09-29T01:41:19;8.43;;;7.63;;
10090;SDS011;5084;51.386;6.778;2022-09-29T01:43:54;9.37;;;7.67;;
10090;SDS011;5084;51.386;6.778;2022-09-29T01:46:23;7.80;;;7.10;;
10090;SDS011;5084;51.386;6.778;2022-09-29T01:48:51;8.37;;;7.57;;
10090;SDS011;5084;51.386;6.778;2022-09-29T01:51:29;8.60;;;7.23;;
10090;SDS011;5084;51.386;6.778;2022-09-29T01:53:58;6.33;;;5.73;;
10090;SDS011;5084;51.386;6.778;2022-09-29T01:56:29;7.10;;;6.43;;
10090;SDS011;5084;51.386;6.778;2022-09-29T01:59:21;7.33;;;6.63;;
10090;SDS011;5084;51.386;6.778;2022-09-29T02:01:44;7.63;;;6.87;;
10090;SDS011;5084;51.386;6.778;2022-09-29T02:04:19;6.87;;;6.27;;
10090;SDS011;5084;51.386;6.778;2022-09-29T02:06:48;7.00;;;6.30;;
10090;SDS011;5084;51.386;6.778;2022-09-29T02:09:27;7.10;;;6.37;;
10090;SDS011;5084;51.386;6.778;2022-09-29T02:12:02;7.80;;;6.27;;
10090;SDS011;5084;51.386;6.778;2022-09-29T02:14:30;7.17;;;6.47;;
10090;SDS011;5084;51.386;6.778;2022-09-29T02:17:03;7.57;;;5.93;;
10090;SDS011;5084;51.386;6.778;2022-09-29T02:19:30;6.73;;;6.13;;
10090;SDS011;5084;51.386;6.778;2022-09-29T02:21:58;6.60;;;5.70;;
10090;SDS011;5084;51.386;6.778;2022-09-29T02:24:24;7.10;;;6.43;;
10090;SDS011;5084;51.386;6.778;2022-09-29T02:26:51;6.50;;;6.00;;
10090;SDS011;5084;51.386;6.778;2022-09-29T02:29:17;7.20;;;6.50;;
10090;SDS011;5084;51.386;6.778;2022-09-29T02:31:44;7.07;;;6.37;;
10090;SDS011;5084;51.386;6.778;2022-09-29T02:34:11;6.77;;;6.10;;
10090;SDS011;5084;51.386;6.778;2022-09-29T02:39:14;7.23;;;6.37;;
10090;SDS011;5084;51.386;6.778;2022-09-29T02:46:42;7.20;;;6.60;;
10090;SDS011;5084;51.386;6.778;2022-09-29T02:49:58;7.87;;;7.13;;
10090;SDS011;5084;51.386;6.778;2022-09-29T02:52:21;8.17;;;7.37;;
10090;SDS011;5084;51.386;6.778;2022-09-29T02:54:49;9.03;;;7.50;;
10090;SDS011;5084;51.386;6.778;2022-09-29T02:59:55;8.33;;;7.53;;
10090;SDS011;5084;51.386;6.778;2022-09-29T03:02:23;9.03;;;8.13;;
10090;SDS011;5084;51.386;6.778;2022-09-29T03:04:49;8.13;;;7.33;;
10090;SDS011;5084;51.386;6.778;2022-09-29T03:07:16;8.17;;;7.27;;
10090;SDS011;5084;51.386;6.778;2022-09-29T03:09:42;7.00;;;6.40;;
10090;SDS011;5084;51.386;6.778;2022-09-29T03:12:09;7.23;;;6.53;;
10090;SDS011;5084;51.386;6.778;2022-09-29T03:14:35;8.23;;;7.33;;
10090;SDS011;5084;51.386;6.778;2022-09-29T03:17:01;10.07;;;9.27;;
10090;SDS011;5084;51.386;6.778;2022-09-29T03:19:27;8.07;;;5.80;;
10090;SDS011;5084;51.386;6.778;2022-09-29T03:21:53;7.70;;;7.00;;
10090;SDS011;5084;51.386;6.778;2022-09-29T03:24:20;7.47;;;6.67;;
10090;SDS011;5084;51.386;6.778;2022-09-29T03:26:46;7.40;;;6.70;;
10090;SDS011;5084;51.386;6.778;2022-09-29T03:29:12;8.13;;;7.33;;
10090;SDS011;5084;51.386;6.778;2022-09-29T03:31:38;12.20;;;11.30;;
10090;SDS011;5084;51.386;6.778;2022-09-29T03:34:11;8.43;;;7.53;;
10090;SDS011;5084;51.386;6.778;2022-09-29T03:36:37;8.10;;;7.27;;
10090;SDS011;5084;51.386;6.778;2022-09-29T03:39:05;8.20;;;7.50;;
10090;SDS011;5084;51.386;6.778;2022-09-29T03:41:31;9.10;;;7.87;;
10090;SDS011;5084;51.386;6.778;2022-09-29T03:43:57;7.07;;;6.37;;
10090;SDS011;5084;51.386;6.778;2022-09-29T03:46:23;8.13;;;7.33;;
10090;SDS011;5084;51.386;6.778;2022-09-29T03:48:49;7.97;;;7.20;;
10090;SDS011;5084;51.386;6.778;2022-09-29T03:51:15;8.13;;;7.33;;
10090;SDS011;5084;51.386;6.778;2022-09-29T03:53:41;8.37;;;7.47;;
10090;SDS011;5084;51.386;6.778;2022-09-29T03:56:07;7.43;;;6.83;;
10090;SDS011;5084;51.386;6.778;2022-09-29T03:58:33;7.60;;;6.80;;
10090;SDS011;5084;51.386;6.778;2022-09-29T04:01:00;6.77;;;6.17;;
10090;SDS011;5084;51.386;6.778;2022-09-29T04:03:26;6.50;;;5.70;;
10090;SDS011;5084;51.386;6.778;2022-09-29T04:05:52;6.43;;;5.83;;
10090;SDS011;5084;51.386;6.778;2022-09-29T04:08:18;7.07;;;6.33;;
10090;SDS011;5084;51.386;6.778;2022-09-29T04:10:45;7.50;;;6.80;;
10090;SDS011;5084;51.386;6.778;2022-09-29T04:13:12;7.53;;;6.30;;
10090;SDS011;5084;51.386;6.778;2022-09-29T04:15:38;6.97;;;6.13;;
10090;SDS011;5084;51.386;6.778;2022-09-29T04:18:04;9.50;;;5.97;;
10090;SDS011;5084;51.386;6.778;2022-09-29T04:20:31;9.07;;;6.67;;
10090;SDS011;5084;51.386;6.778;2022-09-29T04:22:57;7.57;;;6.43;;
10090;SDS011;5084;51.386;6.778;2022-09-29T04:25:25;7.30;;;6.60;;
10090;SDS011;5084;51.386;6.778;2022-09-29T04:27:52;8.90;;;6.27;;
10090;SDS011;5084;51.386;6.778;2022-09-29T04:30:18;7.00;;;6.30;;
10090;SDS011;5084;51.386;6.778;2022-09-29T04:32:44;7.37;;;6.63;;
10090;SDS011;5084;51.386;6.778;2022-09-29T04:35:10;6.43;;;5.83;;
10090;SDS011;5084;51.386;6.778;2022-09-29T04:37:36;7.17;;;6.47;;
10090;SDS011;5084;51.386;6.778;2022-09-29T04:40:03;8.37;;;6.53;;
10090;SDS011;5084;51.386;6.778;2022-09-29T04:42:29;6.40;;;5.80;;
10090;SDS011;5084;51.386;6.778;2022-09-29T04:44:55;6.97;;;5.80;;
10090;SDS011;5084;51.386;6.778;2022-09-29T04:47:21;6.93;;;5.80;;
10090;SDS011;5084;51.386;6.778;2022-09-29T04:49:47;8.80;;;5.63;;
10090;SDS011;5084;51.386;6.778;2022-09-29T04:52:13;6.73;;;6.13;;
10090;SDS011;5084;51.386;6.778;2022-09-29T04:54:40;6.40;;;5.83;;
10090;SDS011;5084;51.386;6.778;2022-09-29T04:57:06;9.73;;;6.20;;
10090;SDS011;5084;51.386;6.778;2022-09-29T04:59:32;6.37;;;5.77;;
10090;SDS011;5084;51.386;6.778;2022-09-29T05:01:58;6.70;;;6.03;;
10090;SDS011;5084;51.386;6.778;2022-09-29T05:04:24;6.67;;;6.00;;
10090;SDS011;5084;51.386;6.778;2022-09-29T05:06:50;6.80;;;6.20;;
10090;SDS011;5084;51.386;6.778;2022-09-29T05:09:17;10.43;;;7.07;;
10090;SDS011;5084;51.386;6.778;2022-09-29T05:11:43;9.07;;;6.03;;
10090;SDS011;5084;51.386;6.778;2022-09-29T05:14:09;6.47;;;5.47;;
10090;SDS011;5084;51.386;6.778;2022-09-29T05:16:35;6.37;;;5.77;;
10090;SDS011;5084;51.386;6.778;2022-09-29T05:19:01;5.80;;;5.30;;
10090;SDS011;5084;51.386;6.778;2022-09-29T05:21:27;6.37;;;5.67;;
10090;SDS011;5084;51.386;6.778;2022-09-29T05:23:54;7.67;;;5.77;;
10090;SDS011;5084;51.386;6.778;2022-09-29T05:26:20;6.53;;;5.83;;
10090;SDS011;5084;51.386;6.778;2022-09-29T05:28:46;7.83;;;6.17;;
10090;SDS011;5084;51.386;6.778;2022-09-29T05:31:20;7.27;;;6.67;;
10090;SDS011;5084;51.386;6.778;2022-09-29T05:33:46;5.67;;;5.17;;
10090;SDS011;5084;51.386;6.778;2022-09-29T05:36:19;6.60;;;6.00;;
10090;SDS011;5084;51.386;6.778;2022-09-29T05:38:45;6.67;;;6.07;;
10090;SDS011;5084;51.386;6.778;2022-09-29T05:41:11;6.37;;;5.77;;
10090;SDS011;5084;51.386;6.778;2022-09-29T05:43:38;6.53;;;5.93;;
10090;SDS011;5084;51.386;6.778;2022-09-29T05:46:05;6.13;;;5.40;;
10090;SDS011;5084;51.386;6.778;2022-09-29T05:48:32;6.10;;;5.50;;
10090;SDS011;5084;51.386;6.778;2022-09-29T05:50:59;7.63;;;5.73;;
10090;SDS011;5084;51.386;6.778;2022-09-29T05:53:25;7.30;;;6.60;;
10090;SDS011;5084;51.386;6.778;2022-09-29T05:55:52;7.03;;;6.37;;
10090;SDS011;5084;51.386;6.778;2022-09-29T05:58:18;7.70;;;5.97;;
10090;SDS011;5084;51.386;6.778;2022-09-29T06:00:44;7.23;;;6.53;;
10090;SDS011;5084;51.386;6.778;2022-09-29T06:03:10;6.73;;;6.07;;
10090;SDS011;5084;51.386;6.778;2022-09-29T06:05:37;7.17;;;6.57;;
10090;SDS011;5084;51.386;6.778;2022-09-29T06:08:04;6.30;;;5.70;;
10090;SDS011;5084;51.386;6.778;2022-09-29T06:10:30;6.27;;;5.53;;
10090;SDS011;5084;51.386;6.778;2022-09-29T06:12:57;6.13;;;5.60;;
10090;SDS011;5084;51.386;6.778;2022-09-29T06:15:23;7.33;;;6.60;;
10090;SDS011;5084;51.386;6.778;2022-09-29T06:17:56;7.90;;;6.47;;
10090;SDS011;5084;51.386;6.778;2022-09-29T06:20:22;7.00;;;6.40;;
10090;SDS011;5084;51.386;6.778;2022-09-29T06:22:48;7.40;;;6.60;;
10090;SDS011;5084;51.386;6.778;2022-09-29T06:25:15;7.87;;;7.07;;
10090;SDS011;5084;51.386;6.778;2022-09-29T06:27:42;8.13;;;7.30;;
10090;SDS011;5084;51.386;6.778;2022-09-29T06:30:08;8.10;;;7.23;;
10090;SDS011;5084;51.386;6.778;2022-09-29T06:32:34;7.77;;;7.07;;
10090;SDS011;5084;51.386;6.778;2022-09-29T06:35:01;10.10;;;7.63;;
10090;SDS011;5084;51.386;6.778;2022-09-29T06:37:53;7.90;;;7.10;;
10090;SDS011;5084;51.386;6.778;2022-09-29T06:40:20;9.10;;;8.20;;
10090;SDS011;5084;51.386;6.778;2022-09-29T06:42:47;10.30;;;7.17;;
10090;SDS011;5084;51.386;6.778;2022-09-29T06:45:14;8.17;;;7.37;;
10090;SDS011;5084;51.386;6.778;2022-09-29T06:47:43;8.20;;;7.40;;
10090;SDS011;5084;51.386;6.778;2022-09-29T06:50:10;8.53;;;7.67;;
10090;SDS011;5084;51.386;6.778;2022-09-29T06:52:36;10.80;;;8.53;;
10090;SDS011;5084;51.386;6.778;2022-09-29T06:55:02;10.40;;;8.43;;
10090;SDS011;5084;51.386;6.778;2022-09-29T06:57:28;12.03;;;9.10;;
10090;SDS011;5084;51.386;6.778;2022-09-29T06:59:55;9.90;;;8.90;;
10090;SDS011;5084;51.386;6.778;2022-09-29T07:02:21;10.00;;;8.63;;
10090;SDS011;5084;51.386;6.778;2022-09-29T07:04:47;10.23;;;8.00;;
10090;SDS011;5084;51.386;6.778;2022-09-29T07:07:13;10.57;;;9.47;;
10090;SDS011;5084;51.386;6.778;2022-09-29T07:09:40;9.97;;;8.97;;
10090;SDS011;5084;51.386;6.778;2022-09-29T07:12:06;10.70;;;9.60;;
10090;SDS011;5084;51.386;6.778;2022-09-29T07:14:32;11.23;;;10.13;;
10090;SDS011;5084;51.386;6.778;2022-09-29T07:16:58;11.20;;;9.47;;
10090;SDS011;5084;51.386;6.778;2022-09-29T07:19:25;11.73;;;10.00;;
10090;SDS011;5084;51.386;6.778;2022-09-29T07:21:51;11.30;;;10.10;;
10090;SDS011;5084;51.386;6.778;2022-09-29T07:24:18;10.53;;;9.40;;
10090;SDS011;5084;51.386;6.778;2022-09-29T07:26:44;11.90;;;9.73;;
10090;SDS011;5084;51.386;6.778;2022-09-29T07:29:10;11.73;;;9.93;;
10090;SDS011;5084;51.386;6.778;2022-09-29T07:31:36;11.30;;;10.20;;
10090;SDS011;5084;51.386;6.778;2022-09-29T07:34:04;11.07;;;9.97;;
10090;SDS011;5084;51.386;6.778;2022-09-29T07:36:30;11.20;;;9.93;;
10090;SDS011;5084;51.386;6.778;2022-09-29T07:38:57;14.10;;;10.40;;
10090;SDS011;5084;51.386;6.778;2022-09-29T07:41:23;11.70;;;9.97;;
10090;SDS011;5084;51.386;6.778;2022-09-29T07:43:49;12.97;;;10.07;;
10090;SDS011;5084;51.386;6.778;2022-09-29T07:46:17;34.17;;;11.53;;
10090;SDS011;5084;51.386;6.778;2022-09-29T07:48:43;10.97;;;9.97;;
10090;SDS011;5084;51.386;6.778;2022-09-29T07:51:11;13.77;;;10.70;;
10090;SDS011;5084;51.386;6.778;2022-09-29T07:53:38;13.13;;;11.57;;
10090;SDS011;5084;51.386;6.778;2022-09-29T07:56:11;13.20;;;11.70;;
10090;SDS011;5084;51.386;6.778;2022-09-29T07:58:38;14.30;;;11.83;;
10090;SDS011;5084;51.386;6.778;2022-09-29T08:01:05;13.47;;;10.97;;
10090;SDS011;5084;51.386;6.778;2022-09-29T08:03:35;15.47;;;12.37;;
10090;SDS011;5084;51.386;6.778;2022-09-29T08:06:01;14.67;;;11.93;;
10090;SDS011;5084;51.386;6.778;2022-09-29T08:08:28;16.63;;;13.37;;
10090;SDS011;5084;51.386;6.778;2022-09-29T08:11:01;14.90;;;12.17;;
10090;SDS011;5084;51.386;6.778;2022-09-29T08:13:28;13.97;;;12.63;;
10090;SDS011;5084;51.386;6.778;2022-09-29T08:15:57;15.03;;;11.63;;
10090;SDS011;5084;51.386;6.778;2022-09-29T08:18:23;15.07;;;12.33;;
10090;SDS011;5084;51.386;6.778;2022-09-29T08:20:49;13.67;;;12.27;;
10090;SDS011;5084;51.386;6.778;2022-09-29T08:23:18;14.43;;;11.60;;
10090;SDS011;5084;51.386;6.778;2022-09-29T08:25:44;13.37;;;11.97;;
10090;SDS011;5084;51.386;6.778;2022-09-29T08:28:10;11.70;;;10.50;;
10090;SDS011;5084;51.386;6.778;2022-09-29T08:30:37;11.03;;;9.93;;
10090;SDS011;5084;51.386;6.778;2022-09-29T08:33:03;9.67;;;8.77;;
10090;SDS011;5084;51.386;6.778;2022-09-29T08:35:32;8.67;;;7.83;;
10090;SDS011;5084;51.386;6.778;2022-09-29T08:37:58;6.70;;;6.10;;
10090;SDS011;5084;51.386;6.778;2022-09-29T08:40:28;8.57;;;6.10;;
10090;SDS011;5084;51.386;6.778;2022-09-29T08:45:32;7.03;;;6.33;;
10090;SDS011;5084;51.386;6.778;2022-09-29T08:48:05;6.97;;;6.37;;
10090;SDS011;5084;51.386;6.778;2022-09-29T08:51:23;6.07;;;5.53;;
10090;SDS011;5084;51.386;6.778;2022-09-29T08:53:21;6.87;;;6.23;;
10090;SDS011;5084;51.386;6.778;2022-09-29T08:55:54;7.03;;;6.43;;
10090;SDS011;5084;51.386;6.778;2022-09-29T08:58:22;6.80;;;6.20;;
10090;SDS011;5084;51.386;6.778;2022-09-29T09:00:51;8.77;;;6.20;;
10090;SDS011;5084;51.386;6.778;2022-09-29T09:03:24;7.07;;;6.37;;
10090;SDS011;5084;51.386;6.778;2022-09-29T09:11:27;7.17;;;6.47;;
10090;SDS011;5084;51.386;6.778;2022-09-29T09:13:58;8.13;;;7.33;;
10090;SDS011;5084;51.386;6.778;2022-09-29T09:16:39;8.00;;;7.30;;
10090;SDS011;5084;51.386;6.778;2022-09-29T09:24:40;7.30;;;6.67;;
10090;SDS011;5084;51.386;6.778;2022-09-29T09:27:12;7.70;;;7.00;;
10090;SDS011;5084;51.386;6.778;2022-09-29T09:29:39;7.33;;;6.73;;
10090;SDS011;5084;51.386;6.778;2022-09-29T09:32:20;9.57;;;7.07;;
10090;SDS011;5084;51.386;6.778;2022-09-29T09:34:57;8.03;;;7.00;;
10090;SDS011;5084;51.386;6.778;2022-09-29T09:39:56;9.53;;;7.50;;
10090;SDS011;5084;51.386;6.778;2022-09-29T09:42:25;7.67;;;6.87;;
10090;SDS011;5084;51.386;6.778;2022-09-29T09:45:16;7.63;;;6.93;;
10090;SDS011;5084;51.386;6.778;2022-09-29T09:47:45;8.67;;;7.80;;
10090;SDS011;5084;51.386;6.778;2022-09-29T09:50:15;8.17;;;7.37;;
10090;SDS011;5084;51.386;6.778;2022-09-29T09:55:17;9.17;;;8.03;;
10090;SDS011;5084;51.386;6.778;2022-09-29T10:00:51;8.30;;;7.37;;
10090;SDS011;5084;51.386;6.778;2022-09-29T10:03:15;8.53;;;7.73;;
10090;SDS011;5084;51.386;6.778;2022-09-29T10:05:42;8.23;;;7.27;;
10090;SDS011;5084;51.386;6.778;2022-09-29T10:10:54;8.30;;;7.50;;
10090;SDS011;5084;51.386;6.778;2022-09-29T10:13:21;9.23;;;8.30;;
10090;SDS011;5084;51.386;6.778;2022-09-29T10:15:51;7.70;;;7.00;;
10090;SDS011;5084;51.386;6.778;2022-09-29T10:18:25;9.97;;;7.73;;
10090;SDS011;5084;51.386;6.778;2022-09-29T10:20:54;8.83;;;7.73;;
10090;SDS011;5084;51.386;6.778;2022-09-29T10:23:33;8.00;;;7.20;;
10090;SDS011;5084;51.386;6.778;2022-09-29T10:34:30;8.33;;;6.47;;
10090;SDS011;5084;51.386;6.778;2022-09-29T10:36:57;7.27;;;6.57;;
10090;SDS011;5084;51.386;6.778;2022-09-29T10:39:41;6.77;;;6.13;;
10090;SDS011;5084;51.386;6.778;2022-09-29T10:42:31;6.30;;;5.47;;
10090;SDS011;5084;51.386;6.778;2022-09-29T10:45:10;7.77;;;6.03;;
10090;SDS011;5084;51.386;6.778;2022-09-29T10:47:37;7.77;;;6.30;;
10090;SDS011;5084;51.386;6.778;2022-09-29T10:50:08;9.00;;;5.83;;
10090;SDS011;5084;51.386;6.778;2022-09-29T10:52:36;9.40;;;6.03;;
10090;SDS011;5084;51.386;6.778;2022-09-29T10:55:13;5.37;;;4.87;;
10090;SDS011;5084;51.386;6.778;2022-09-29T10:57:41;8.90;;;5.53;;
10090;SDS011;5084;51.386;6.778;2022-09-29T11:00:23;4.80;;;4.40;;
10090;SDS011;5084;51.386;6.778;2022-09-29T11:02:50;5.90;;;4.90;;
10090;SDS011;5084;51.386;6.778;2022-09-29T11:05:18;6.13;;;4.20;;
10090;SDS011;5084;51.386;6.778;2022-09-29T11:07:47;5.10;;;4.60;;
10090;SDS011;5084;51.386;6.778;2022-09-29T11:10:28;4.73;;;3.80;;
10090;SDS011;5084;51.386;6.778;2022-09-29T11:12:55;4.77;;;4.03;;
10090;SDS011;5084;51.386;6.778;2022-09-29T11:15:26;6.23;;;4.80;;
10090;SDS011;5084;51.386;6.778;2022-09-29T11:17:53;4.97;;;4.23;;
10090;SDS011;5084;51.386;6.778;2022-09-29T11:20:19;5.00;;;4.03;;
10090;SDS011;5084;51.386;6.778;2022-09-29T11:45:53;4.90;;;3.63;;
10090;SDS011;5084;51.386;6.778;2022-09-29T11:50:53;5.97;;;3.47;;
10090;SDS011;5084;51.386;6.778;2022-09-29T12:01:37;3.83;;;2.63;;
10090;SDS011;5084;51.386;6.778;2022-09-29T12:04:14;5.57;;;2.73;;
10090;SDS011;5084;51.386;6.778;2022-09-29T12:14:27;2.90;;;2.63;;
10090;SDS011;5084;51.386;6.778;2022-09-29T12:17:07;4.50;;;3.37;;
10090;SDS011;5084;51.386;6.778;2022-09-29T12:19:35;4.17;;;2.67;;
10090;SDS011;5084;51.386;6.778;2022-09-29T12:22:02;3.27;;;2.27;;
10090;SDS011;5084;51.386;6.778;2022-09-29T12:26:55;2.30;;;2.10;;
10090;SDS011;5084;51.386;6.778;2022-09-29T12:29:42;1.77;;;1.67;;
10090;SDS011;5084;51.386;6.778;2022-09-29T12:34:58;5.90;;;3.53;;
10090;SDS011;5084;51.386;6.778;2022-09-29T12:37:43;3.87;;;2.87;;
10090;SDS011;5084;51.386;6.778;2022-09-29T12:45:32;3.17;;;2.87;;
10090;SDS011;5084;51.386;6.778;2022-09-29T12:50:41;5.27;;;3.17;;
10090;SDS011;5084;51.386;6.778;2022-09-29T12:53:23;4.70;;;3.70;;
10090;SDS011;5084;51.386;6.778;2022-09-29T12:58:43;3.20;;;2.90;;
10090;SDS011;5084;51.386;6.778;2022-09-29T13:03:41;4.03;;;3.20;;
10090;SDS011;5084;51.386;6.778;2022-09-29T13:11:21;4.13;;;2.77;;
10090;SDS011;5084;51.386;6.778;2022-09-29T13:13:58;5.73;;;3.03;;
10090;SDS011;5084;51.386;6.778;2022-09-29T13:16:34;3.40;;;2.70;;
10090;SDS011;5084;51.386;6.778;2022-09-29T13:24:21;4.53;;;2.57;;
10090;SDS011;5084;51.386;6.778;2022-09-29T13:26:59;2.60;;;2.40;;
10090;SDS011;5084;51.386;6.778;2022-09-29T13:29:31;3.80;;;2.47;;
10090;SDS011;5084;51.386;6.778;2022-09-29T13:31:59;3.80;;;2.77;;
10090;SDS011;5084;51.386;6.778;2022-09-29T13:34:28;6.77;;;3.00;;
10090;SDS011;5084;51.386;6.778;2022-09-29T13:37:05;3.63;;;2.60;;
10090;SDS011;5084;51.386;6.778;2022-09-29T13:39:32;3.37;;;2.40;;
10090;SDS011;5084;51.386;6.778;2022-09-29T13:42:24;3.17;;;2.43;;
10090;SDS011;5084;51.386;6.778;2022-09-29T13:44:45;3.97;;;2.53;;
10090;SDS011;5084;51.386;6.778;2022-09-29T13:47:32;3.43;;;3.13;;
10090;SDS011;5084;51.386;6.778;2022-09-29T13:50:38;3.33;;;3.03;;
10090;SDS011;5084;51.386;6.778;2022-09-29T13:52:47;2.97;;;2.67;;
10090;SDS011;5084;51.386;6.778;2022-09-29T13:57:59;5.60;;;3.07;;
10090;SDS011;5084;51.386;6.778;2022-09-29T14:00:25;5.13;;;2.97;;
10090;SDS011;5084;51.386;6.778;2022-09-29T14:03:02;3.73;;;2.73;;
10090;SDS011;5084;51.386;6.778;2022-09-29T14:13:01;2.37;;;2.17;;
10090;SDS011;5084;51.386;6.778;2022-09-29T14:15:32;3.37;;;2.63;;
10090;SDS011;5084;51.386;6.778;2022-09-29T14:18:01;4.13;;;2.47;;
10090;SDS011;5084;51.386;6.778;2022-09-29T14:20:31;3.13;;;2.67;;
10090;SDS011;5084;51.386;6.778;2022-09-29T14:22:59;2.73;;;2.53;;
10090;SDS011;5084;51.386;6.778;2022-09-29T14:25:28;3.40;;;2.60;;
10090;SDS011;5084;51.386;6.778;2022-09-29T14:35:36;3.47;;;2.53;;
10090;SDS011;5084;51.386;6.778;2022-09-29T14:38:04;3.77;;;2.40;;
10090;SDS011;5084;51.386;6.778;2022-09-29T14:40:33;6.03;;;3.70;;
10090;SDS011;5084;51.386;6.778;2022-09-29T14:52:07;2.20;;;1.90;;
10090;SDS011;5084;51.386;6.778;2022-09-29T14:54:41;3.73;;;3.27;;
10090;SDS011;5084;51.386;6.778;2022-09-29T15:00:04;2.10;;;1.90;;
10090;SDS011;5084;51.386;6.778;2022-09-29T15:02:31;2.93;;;1.90;;
10090;SDS011;5084;51.386;6.778;2022-09-29T15:05:10;2.00;;;1.80;;
10090;SDS011;5084;51.386;6.778;2022-09-29T15:07:39;3.40;;;2.10;;
10090;SDS011;5084;51.386;6.778;2022-09-29T15:10:13;4.00;;;2.70;;
10090;SDS011;5084;51.386;6.778;2022-09-29T15:12:44;4.03;;;2.90;;
10090;SDS011;5084;51.386;6.778;2022-09-29T15:15:28;2.30;;;2.10;;
10090;SDS011;5084;51.386;6.778;2022-09-29T15:18:03;2.73;;;1.90;;
10090;SDS011;5084;51.386;6.778;2022-09-29T15:20:54;4.80;;;2.37;;
10090;SDS011;5084;51.386;6.778;2022-09-29T15:25:44;2.50;;;2.30;;
10090;SDS011;5084;51.386;6.778;2022-09-29T15:31:05;1.70;;;1.57;;
10090;SDS011;5084;51.386;6.778;2022-09-29T15:33:35;4.33;;;2.20;;
10090;SDS011;5084;51.386;6.778;2022-09-29T15:36:02;3.57;;;2.20;;
10090;SDS011;5084;51.386;6.778;2022-09-29T15:38:31;3.33;;;2.23;;
10090;SDS011;5084;51.386;6.778;2022-09-29T15:41:00;2.20;;;1.97;;
10090;SDS011;5084;51.386;6.778;2022-09-29T15:43:29;2.93;;;1.80;;
10090;SDS011;5084;51.386;6.778;2022-09-29T15:45:59;2.50;;;2.07;;
10090;SDS011;5084;51.386;6.778;2022-09-29T15:48:26;2.10;;;1.90;;
10090;SDS011;5084;51.386;6.778;2022-09-29T15:50:52;2.77;;;1.70;;
10090;SDS011;5084;51.386;6.778;2022-09-29T15:53:20;2.20;;;1.60;;
10090;SDS011;5084;51.386;6.778;2022-09-29T15:55:47;4.90;;;1.73;;
10090;SDS011;5084;51.386;6.778;2022-09-29T16:00:56;1.50;;;1.40;;
10090;SDS011;5084;51.386;6.778;2022-09-29T16:03:25;3.08;;;2.45;;
10090;SDS011;5084;51.386;6.778;2022-09-29T16:05:59;2.87;;;1.80;;
10090;SDS011;5084;51.386;6.778;2022-09-29T16:08:25;2.00;;;1.43;;
10090;SDS011;5084;51.386;6.778;2022-09-29T16:11:29;1.77;;;1.60;;
10090;SDS011;5084;51.386;6.778;2022-09-29T16:13:47;1.60;;;1.50;;
10090;SDS011;5084;51.386;6.778;2022-09-29T16:16:14;2.50;;;1.50;;
10090;SDS011;5084;51.386;6.778;2022-09-29T16:18:45;1.80;;;1.60;;
10090;SDS011;5084;51.386;6.778;2022-09-29T16:21:13;3.30;;;1.70;;
10090;SDS011;5084;51.386;6.778;2022-09-29T16:23:43;2.33;;;1.80;;
10090;SDS011;5084;51.386;6.778;2022-09-29T16:26:14;2.70;;;1.90;;
10090;SDS011;5084;51.386;6.778;2022-09-29T16:31:27;2.77;;;2.10;;
10090;SDS011;5084;51.386;6.778;2022-09-29T16:33:54;5.00;;;2.27;;
10090;SDS011;5084;51.386;6.778;2022-09-29T16:36:21;2.57;;;2.17;;
10090;SDS011;5084;51.386;6.778;2022-09-29T16:38:49;1.87;;;1.70;;
10090;SDS011;5084;51.386;6.778;2022-09-29T16:41:27;2.40;;;1.90;;
10090;SDS011;5084;51.386;6.778;2022-09-29T16:52:10;2.43;;;1.70;;
10090;SDS011;5084;51.386;6.778;2022-09-29T16:54:40;6.77;;;2.27;;
10090;SDS011;5084;51.386;6.778;2022-09-29T16:59:41;1.90;;;1.80;;
10090;SDS011;5084;51.386;6.778;2022-09-29T17:02:08;2.70;;;2.00;;
10090;SDS011;5084;51.386;6.778;2022-09-29T17:04:34;2.80;;;2.17;;
10090;SDS011;5084;51.386;6.778;2022-09-29T17:07:01;2.67;;;2.03;;
10090;SDS011;5084;51.386;6.778;2022-09-29T17:09:27;3.17;;;2.30;;
10090;SDS011;5084;51.386;6.778;2022-09-29T17:11:53;4.47;;;1.90;;
10090;SDS011;5084;51.386;6.778;2022-09-29T17:14:24;4.60;;;2.20;;
10090;SDS011;5084;51.386;6.778;2022-09-29T17:16:50;3.73;;;1.83;;
10090;SDS011;5084;51.386;6.778;2022-09-29T17:19:17;4.03;;;1.80;;
10090;SDS011;5084;51.386;6.778;2022-09-29T17:21:44;4.13;;;1.80;;
10090;SDS011;5084;51.386;6.778;2022-09-29T17:24:10;3.00;;;1.93;;
10090;SDS011;5084;51.386;6.778;2022-09-29T17:26:37;1.90;;;1.80;;
10090;SDS011;5084;51.386;6.778;2022-09-29T17:29:22;2.30;;;1.90;;
10090;SDS011;5084;51.386;6.778;2022-09-29T17:31:48;2.57;;;1.90;;
10090;SDS011;5084;51.386;6.778;2022-09-29T17:34:14;1.97;;;1.80;;
10090;SDS011;5084;51.386;6.778;2022-09-29T17:36:41;4.13;;;1.80;;
10090;SDS011;5084;51.386;6.778;2022-09-29T17:39:08;2.70;;;1.77;;
10090;SDS011;5084;51.386;6.778;2022-09-29T17:41:34;3.07;;;1.80;;
10090;SDS011;5084;51.386;6.778;2022-09-29T17:44:00;5.10;;;1.97;;
10090;SDS011;5084;51.386;6.778;2022-09-29T17:46:29;3.63;;;2.20;;
10090;SDS011;5084;51.386;6.778;2022-09-29T17:48:56;2.00;;;1.67;;
10090;SDS011;5084;51.386;6.778;2022-09-29T17:51:22;2.67;;;2.27;;
10090;SDS011;5084;51.386;6.778;2022-09-29T17:53:48;3.33;;;2.10;;
10090;SDS011;5084;51.386;6.778;2022-09-29T17:56:16;2.90;;;2.00;;
10090;SDS011;5084;51.386;6.778;2022-09-29T17:58:45;2.50;;;1.80;;
10090;SDS011;5084;51.386;6.778;2022-09-29T18:01:12;6.60;;;2.30;;
10090;SDS011;5084;51.386;6.778;2022-09-29T18:03:38;7.23;;;1.93;;
10090;SDS011;5084;51.386;6.778;2022-09-29T18:06:04;3.87;;;1.53;;
10090;SDS011;5084;51.386;6.778;2022-09-29T18:08:31;2.47;;;2.20;;